sensor_id;sensor_type;location;lat;lon;timestamp;P1;durP1;ratioP1;P2;durP2;ratioP2
10122;SDS011;5101;49.038;8.710;2023-09-07T00:00:33;3.17;;;2.88;;
10122;SDS011;5101;49.038;8.710;2023-09-07T00:02:59;3.60;;;2.80;;
10122;SDS011;5101;49.038;8.710;2023-09-07T00:05:24;3.40;;;3.10;;
10122;SDS011;5101;49.038;8.710;2023-09-07T00:07:50;6.72;;;3.17;;
10122;SDS011;5101;49.038;8.710;2023-09-07T00:10:16;3.50;;;3.17;;
10122;SDS011;5101;49.038;8.710;2023-09-07T00:12:42;2.90;;;2.70;;
10122;SDS011;5101;49.038;8.710;2023-09-07T00:15:08;5.15;;;2.60;;
10122;SDS011;5101;49.038;8.710;2023-09-07T00:17:35;3.92;;;2.92;;
10122;SDS011;5101;49.038;8.710;2023-09-07T00:20:01;3.47;;;3.17;;
10122;SDS011;5101;49.038;8.710;2023-09-07T00:22:34;4.18;;;2.75;;
10122;SDS011;5101;49.038;8.710;2023-09-07T00:25:00;2.83;;;2.63;;
10122;SDS011;5101;49.038;8.710;2023-09-07T00:27:25;3.25;;;2.60;;
10122;SDS011;5101;49.038;8.710;2023-09-07T00:29:51;4.55;;;3.03;;
10122;SDS011;5101;49.038;8.710;2023-09-07T00:32:16;2.50;;;2.40;;
10122;SDS011;5101;49.038;8.710;2023-09-07T00:34:42;3.17;;;2.88;;
10122;SDS011;5101;49.038;8.710;2023-09-07T00:37:07;2.80;;;2.60;;
10122;SDS011;5101;49.038;8.710;2023-09-07T00:39:32;4.35;;;2.67;;
10122;SDS011;5101;49.038;8.710;2023-09-07T00:41:58;3.10;;;2.63;;
10122;SDS011;5101;49.038;8.710;2023-09-07T00:44:23;2.65;;;2.45;;
10122;SDS011;5101;49.038;8.710;2023-09-07T00:46:49;3.22;;;2.55;;
10122;SDS011;5101;49.038;8.710;2023-09-07T00:49:15;3.25;;;2.60;;
10122;SDS011;5101;49.038;8.710;2023-09-07T00:51:40;2.72;;;2.45;;
10122;SDS011;5101;49.038;8.710;2023-09-07T00:54:06;2.42;;;2.30;;
10122;SDS011;5101;49.038;8.710;2023-09-07T00:56:32;2.50;;;2.30;;
10122;SDS011;5101;49.038;8.710;2023-09-07T00:58:58;3.00;;;2.63;;
10122;SDS011;5101;49.038;8.710;2023-09-07T01:01:25;2.45;;;2.35;;
10122;SDS011;5101;49.038;8.710;2023-09-07T01:03:51;3.20;;;2.30;;
10122;SDS011;5101;49.038;8.710;2023-09-07T01:06:25;3.95;;;2.40;;
10122;SDS011;5101;49.038;8.710;2023-09-07T01:08:57;2.30;;;2.20;;
10122;SDS011;5101;49.038;8.710;2023-09-07T01:11:35;2.20;;;2.10;;
10122;SDS011;5101;49.038;8.710;2023-09-07T01:14:02;4.22;;;2.35;;
10122;SDS011;5101;49.038;8.710;2023-09-07T01:16:29;2.47;;;2.28;;
10122;SDS011;5101;49.038;8.710;2023-09-07T01:18:55;3.10;;;2.90;;
10122;SDS011;5101;49.038;8.710;2023-09-07T01:21:22;3.03;;;2.53;;
10122;SDS011;5101;49.038;8.710;2023-09-07T01:23:48;3.38;;;2.70;;
10122;SDS011;5101;49.038;8.710;2023-09-07T01:26:14;2.72;;;2.28;;
10122;SDS011;5101;49.038;8.710;2023-09-07T01:28:40;3.15;;;2.72;;
10122;SDS011;5101;49.038;8.710;2023-09-07T01:31:06;4.43;;;2.80;;
10122;SDS011;5101;49.038;8.710;2023-09-07T01:33:32;2.95;;;2.53;;
10122;SDS011;5101;49.038;8.710;2023-09-07T01:35:57;2.35;;;2.22;;
10122;SDS011;5101;49.038;8.710;2023-09-07T01:38:23;2.95;;;2.50;;
10122;SDS011;5101;49.038;8.710;2023-09-07T01:40:48;2.65;;;2.45;;
10122;SDS011;5101;49.038;8.710;2023-09-07T01:43:14;2.70;;;2.45;;
10122;SDS011;5101;49.038;8.710;2023-09-07T01:45:39;2.50;;;2.30;;
10122;SDS011;5101;49.038;8.710;2023-09-07T01:48:09;2.90;;;2.60;;
10122;SDS011;5101;49.038;8.710;2023-09-07T01:50:36;2.63;;;1.95;;
10122;SDS011;5101;49.038;8.710;2023-09-07T01:53:02;2.45;;;2.25;;
10122;SDS011;5101;49.038;8.710;2023-09-07T01:55:29;2.50;;;2.30;;
10122;SDS011;5101;49.038;8.710;2023-09-07T01:57:55;3.08;;;2.70;;
10122;SDS011;5101;49.038;8.710;2023-09-07T02:00:21;3.70;;;2.50;;
10122;SDS011;5101;49.038;8.710;2023-09-07T02:02:46;3.75;;;2.17;;
10122;SDS011;5101;49.038;8.710;2023-09-07T02:05:11;3.30;;;2.20;;
10122;SDS011;5101;49.038;8.710;2023-09-07T02:07:37;3.63;;;2.25;;
10122;SDS011;5101;49.038;8.710;2023-09-07T02:10:03;3.08;;;2.40;;
10122;SDS011;5101;49.038;8.710;2023-09-07T02:12:29;2.30;;;2.17;;
10122;SDS011;5101;49.038;8.710;2023-09-07T02:14:55;3.97;;;2.20;;
10122;SDS011;5101;49.038;8.710;2023-09-07T02:17:21;4.07;;;2.22;;
10122;SDS011;5101;49.038;8.710;2023-09-07T02:19:46;2.50;;;2.30;;
10122;SDS011;5101;49.038;8.710;2023-09-07T02:22:12;2.20;;;2.10;;
10122;SDS011;5101;49.038;8.710;2023-09-07T02:24:37;2.50;;;2.30;;
10122;SDS011;5101;49.038;8.710;2023-09-07T02:27:03;3.13;;;2.38;;
10122;SDS011;5101;49.038;8.710;2023-09-07T02:29:29;2.38;;;2.20;;
10122;SDS011;5101;49.038;8.710;2023-09-07T02:31:54;2.53;;;2.33;;
10122;SDS011;5101;49.038;8.710;2023-09-07T02:34:21;2.50;;;2.30;;
10122;SDS011;5101;49.038;8.710;2023-09-07T02:36:47;2.83;;;2.55;;
10122;SDS011;5101;49.038;8.710;2023-09-07T02:39:12;2.25;;;2.00;;
10122;SDS011;5101;49.038;8.710;2023-09-07T02:41:38;3.22;;;2.60;;
10122;SDS011;5101;49.038;8.710;2023-09-07T02:44:04;3.55;;;2.50;;
10122;SDS011;5101;49.038;8.710;2023-09-07T02:46:30;3.05;;;2.63;;
10122;SDS011;5101;49.038;8.710;2023-09-07T02:48:58;2.83;;;2.45;;
10122;SDS011;5101;49.038;8.710;2023-09-07T02:51:24;2.97;;;2.78;;
10122;SDS011;5101;49.038;8.710;2023-09-07T02:53:50;2.78;;;2.58;;
10122;SDS011;5101;49.038;8.710;2023-09-07T02:56:16;2.67;;;2.47;;
10122;SDS011;5101;49.038;8.710;2023-09-07T02:58:41;2.85;;;2.65;;
10122;SDS011;5101;49.038;8.710;2023-09-07T03:01:07;2.90;;;2.65;;
10122;SDS011;5101;49.038;8.710;2023-09-07T03:03:36;3.17;;;2.78;;
10122;SDS011;5101;49.038;8.710;2023-09-07T03:06:09;3.10;;;2.50;;
10122;SDS011;5101;49.038;8.710;2023-09-07T03:08:39;3.42;;;2.72;;
10122;SDS011;5101;49.038;8.710;2023-09-07T03:11:05;3.25;;;2.95;;
10122;SDS011;5101;49.038;8.710;2023-09-07T03:13:31;3.10;;;2.88;;
10122;SDS011;5101;49.038;8.710;2023-09-07T03:15:57;3.22;;;3.03;;
10122;SDS011;5101;49.038;8.710;2023-09-07T03:18:23;3.03;;;2.72;;
10122;SDS011;5101;49.038;8.710;2023-09-07T03:20:49;2.90;;;2.70;;
10122;SDS011;5101;49.038;8.710;2023-09-07T03:23:15;6.90;;;2.85;;
10122;SDS011;5101;49.038;8.710;2023-09-07T03:25:41;2.80;;;2.60;;
10122;SDS011;5101;49.038;8.710;2023-09-07T03:28:06;3.47;;;2.83;;
10122;SDS011;5101;49.038;8.710;2023-09-07T03:30:32;3.05;;;2.83;;
10122;SDS011;5101;49.038;8.710;2023-09-07T03:32:58;3.47;;;2.80;;
10122;SDS011;5101;49.038;8.710;2023-09-07T03:35:24;3.80;;;3.05;;
10122;SDS011;5101;49.038;8.710;2023-09-07T03:37:49;5.97;;;3.25;;
10122;SDS011;5101;49.038;8.710;2023-09-07T03:40:15;5.78;;;3.67;;
10122;SDS011;5101;49.038;8.710;2023-09-07T03:42:40;3.22;;;2.83;;
10122;SDS011;5101;49.038;8.710;2023-09-07T03:45:07;3.20;;;2.90;;
10122;SDS011;5101;49.038;8.710;2023-09-07T03:47:33;4.28;;;2.85;;
10122;SDS011;5101;49.038;8.710;2023-09-07T03:49:58;3.83;;;3.00;;
10122;SDS011;5101;49.038;8.710;2023-09-07T03:52:24;3.00;;;2.78;;
10122;SDS011;5101;49.038;8.710;2023-09-07T03:54:51;5.07;;;3.08;;
10122;SDS011;5101;49.038;8.710;2023-09-07T03:57:19;3.35;;;3.15;;
10122;SDS011;5101;49.038;8.710;2023-09-07T03:59:45;3.35;;;2.92;;
10122;SDS011;5101;49.038;8.710;2023-09-07T04:02:10;4.00;;;3.33;;
10122;SDS011;5101;49.038;8.710;2023-09-07T04:04:37;3.90;;;3.60;;
10122;SDS011;5101;49.038;8.710;2023-09-07T04:07:03;4.25;;;3.22;;
10122;SDS011;5101;49.038;8.710;2023-09-07T04:09:28;3.63;;;3.28;;
10122;SDS011;5101;49.038;8.710;2023-09-07T04:11:54;3.53;;;3.22;;
10122;SDS011;5101;49.038;8.710;2023-09-07T04:14:19;3.55;;;3.25;;
10122;SDS011;5101;49.038;8.710;2023-09-07T04:16:45;4.57;;;2.90;;
10122;SDS011;5101;49.038;8.710;2023-09-07T04:19:11;3.90;;;3.40;;
10122;SDS011;5101;49.038;8.710;2023-09-07T04:21:36;3.60;;;3.30;;
10122;SDS011;5101;49.038;8.710;2023-09-07T04:24:03;3.65;;;3.28;;
10122;SDS011;5101;49.038;8.710;2023-09-07T04:26:29;5.30;;;3.58;;
10122;SDS011;5101;49.038;8.710;2023-09-07T04:28:55;4.15;;;3.30;;
10122;SDS011;5101;49.038;8.710;2023-09-07T04:31:20;3.53;;;3.22;;
10122;SDS011;5101;49.038;8.710;2023-09-07T04:33:46;3.17;;;2.88;;
10122;SDS011;5101;49.038;8.710;2023-09-07T04:36:13;4.00;;;3.30;;
10122;SDS011;5101;49.038;8.710;2023-09-07T04:38:39;4.20;;;3.72;;
10122;SDS011;5101;49.038;8.710;2023-09-07T04:41:09;4.97;;;2.90;;
10122;SDS011;5101;49.038;8.710;2023-09-07T04:43:37;5.20;;;3.47;;
10122;SDS011;5101;49.038;8.710;2023-09-07T04:46:10;6.20;;;3.13;;
10122;SDS011;5101;49.038;8.710;2023-09-07T04:48:36;4.03;;;3.35;;
10122;SDS011;5101;49.038;8.710;2023-09-07T04:51:03;3.53;;;3.22;;
10122;SDS011;5101;49.038;8.710;2023-09-07T04:53:31;3.40;;;3.10;;
10122;SDS011;5101;49.038;8.710;2023-09-07T04:55:57;6.03;;;4.25;;
10122;SDS011;5101;49.038;8.710;2023-09-07T04:58:23;4.25;;;3.85;;
10122;SDS011;5101;49.038;8.710;2023-09-07T05:00:49;3.95;;;3.63;;
10122;SDS011;5101;49.038;8.710;2023-09-07T05:03:15;4.22;;;3.88;;
10122;SDS011;5101;49.038;8.710;2023-09-07T05:05:41;4.28;;;3.90;;
10122;SDS011;5101;49.038;8.710;2023-09-07T05:08:07;3.83;;;3.53;;
10122;SDS011;5101;49.038;8.710;2023-09-07T05:10:33;5.03;;;4.00;;
10122;SDS011;5101;49.038;8.710;2023-09-07T05:12:59;5.80;;;3.85;;
10122;SDS011;5101;49.038;8.710;2023-09-07T05:15:24;4.40;;;4.00;;
10122;SDS011;5101;49.038;8.710;2023-09-07T05:17:51;4.63;;;3.85;;
10122;SDS011;5101;49.038;8.710;2023-09-07T05:20:19;4.15;;;3.78;;
10122;SDS011;5101;49.038;8.710;2023-09-07T05:22:45;6.10;;;4.15;;
10122;SDS011;5101;49.038;8.710;2023-09-07T05:25:11;4.95;;;4.25;;
10122;SDS011;5101;49.038;8.710;2023-09-07T05:27:37;4.25;;;3.90;;
10122;SDS011;5101;49.038;8.710;2023-09-07T05:30:03;4.85;;;4.03;;
10122;SDS011;5101;49.038;8.710;2023-09-07T05:32:29;4.78;;;4.28;;
10122;SDS011;5101;49.038;8.710;2023-09-07T05:34:55;4.15;;;3.60;;
10122;SDS011;5101;49.038;8.710;2023-09-07T05:37:20;4.65;;;3.83;;
10122;SDS011;5101;49.038;8.710;2023-09-07T05:39:46;4.35;;;3.88;;
10122;SDS011;5101;49.038;8.710;2023-09-07T05:42:12;4.50;;;4.10;;
10122;SDS011;5101;49.038;8.710;2023-09-07T05:44:37;4.32;;;4.03;;
10122;SDS011;5101;49.038;8.710;2023-09-07T05:47:03;5.28;;;4.07;;
10122;SDS011;5101;49.038;8.710;2023-09-07T05:49:29;4.68;;;4.20;;
10122;SDS011;5101;49.038;8.710;2023-09-07T05:51:55;4.50;;;4.10;;
10122;SDS011;5101;49.038;8.710;2023-09-07T05:54:21;7.43;;;4.53;;
10122;SDS011;5101;49.038;8.710;2023-09-07T05:56:46;6.00;;;3.92;;
10122;SDS011;5101;49.038;8.710;2023-09-07T05:59:12;4.13;;;3.72;;
10122;SDS011;5101;49.038;8.710;2023-09-07T06:01:38;5.38;;;4.28;;
10122;SDS011;5101;49.038;8.710;2023-09-07T06:04:05;7.38;;;4.00;;
10122;SDS011;5101;49.038;8.710;2023-09-07T06:06:31;3.83;;;3.53;;
10122;SDS011;5101;49.038;8.710;2023-09-07T06:08:56;4.65;;;3.80;;
10122;SDS011;5101;49.038;8.710;2023-09-07T06:11:24;4.43;;;4.03;;
10122;SDS011;5101;49.038;8.710;2023-09-07T06:13:49;4.82;;;3.97;;
10122;SDS011;5101;49.038;8.710;2023-09-07T06:16:15;3.75;;;3.45;;
10122;SDS011;5101;49.038;8.710;2023-09-07T06:18:40;4.07;;;3.65;;
10122;SDS011;5101;49.038;8.710;2023-09-07T06:21:06;4.10;;;3.80;;
10122;SDS011;5101;49.038;8.710;2023-09-07T06:23:31;7.78;;;3.67;;
10122;SDS011;5101;49.038;8.710;2023-09-07T06:25:57;5.50;;;3.90;;
10122;SDS011;5101;49.038;8.710;2023-09-07T06:28:22;5.60;;;3.85;;
10122;SDS011;5101;49.038;8.710;2023-09-07T06:30:48;6.35;;;4.00;;
10122;SDS011;5101;49.038;8.710;2023-09-07T06:33:13;3.72;;;3.42;;
10122;SDS011;5101;49.038;8.710;2023-09-07T06:35:39;3.25;;;3.03;;
10122;SDS011;5101;49.038;8.710;2023-09-07T06:38:04;3.88;;;3.58;;
10122;SDS011;5101;49.038;8.710;2023-09-07T06:40:30;6.80;;;3.72;;
10122;SDS011;5101;49.038;8.710;2023-09-07T06:42:56;3.80;;;3.13;;
10122;SDS011;5101;49.038;8.710;2023-09-07T06:45:25;4.10;;;3.70;;
10122;SDS011;5101;49.038;8.710;2023-09-07T06:47:50;4.15;;;3.40;;
10122;SDS011;5101;49.038;8.710;2023-09-07T06:50:16;3.38;;;3.15;;
10122;SDS011;5101;49.038;8.710;2023-09-07T06:52:41;3.70;;;3.47;;
10122;SDS011;5101;49.038;8.710;2023-09-07T06:55:07;3.60;;;3.40;;
10122;SDS011;5101;49.038;8.710;2023-09-07T06:57:32;6.10;;;3.35;;
10122;SDS011;5101;49.038;8.710;2023-09-07T07:00:01;3.13;;;2.92;;
10122;SDS011;5101;49.038;8.710;2023-09-07T07:02:30;3.55;;;3.25;;
10122;SDS011;5101;49.038;8.710;2023-09-07T07:04:56;5.68;;;3.80;;
10122;SDS011;5101;49.038;8.710;2023-09-07T07:07:21;3.80;;;2.80;;
10122;SDS011;5101;49.038;8.710;2023-09-07T07:09:47;3.72;;;3.22;;
10122;SDS011;5101;49.038;8.710;2023-09-07T07:12:12;4.75;;;3.13;;
10122;SDS011;5101;49.038;8.710;2023-09-07T07:14:38;3.33;;;2.85;;
10122;SDS011;5101;49.038;8.710;2023-09-07T07:17:04;3.40;;;3.10;;
10122;SDS011;5101;49.038;8.710;2023-09-07T07:19:30;4.45;;;3.50;;
10122;SDS011;5101;49.038;8.710;2023-09-07T07:21:56;3.63;;;3.15;;
10122;SDS011;5101;49.038;8.710;2023-09-07T07:24:21;3.08;;;2.75;;
10122;SDS011;5101;49.038;8.710;2023-09-07T07:26:47;6.80;;;3.28;;
10122;SDS011;5101;49.038;8.710;2023-09-07T07:29:12;3.05;;;2.75;;
10122;SDS011;5101;49.038;8.710;2023-09-07T07:31:38;4.72;;;3.00;;
10122;SDS011;5101;49.038;8.710;2023-09-07T07:34:04;5.47;;;2.88;;
10122;SDS011;5101;49.038;8.710;2023-09-07T07:36:29;2.85;;;2.60;;
10122;SDS011;5101;49.038;8.710;2023-09-07T07:38:55;4.20;;;2.55;;
10122;SDS011;5101;49.038;8.710;2023-09-07T07:41:21;3.47;;;2.88;;
10122;SDS011;5101;49.038;8.710;2023-09-07T07:43:47;4.55;;;2.50;;
10122;SDS011;5101;49.038;8.710;2023-09-07T07:46:13;3.00;;;2.70;;
10122;SDS011;5101;49.038;8.710;2023-09-07T07:48:40;4.20;;;2.85;;
10122;SDS011;5101;49.038;8.710;2023-09-07T07:51:06;3.17;;;2.90;;
10122;SDS011;5101;49.038;8.710;2023-09-07T07:53:33;3.88;;;3.45;;
10122;SDS011;5101;49.038;8.710;2023-09-07T07:55:59;3.63;;;3.13;;
10122;SDS011;5101;49.038;8.710;2023-09-07T07:58:25;2.78;;;2.33;;
10122;SDS011;5101;49.038;8.710;2023-09-07T08:00:50;5.78;;;3.15;;
10122;SDS011;5101;49.038;8.710;2023-09-07T08:03:16;5.60;;;2.80;;
10122;SDS011;5101;49.038;8.710;2023-09-07T08:05:42;3.08;;;2.75;;
10122;SDS011;5101;49.038;8.710;2023-09-07T08:08:08;2.72;;;2.10;;
10122;SDS011;5101;49.038;8.710;2023-09-07T08:10:34;3.05;;;2.85;;
10122;SDS011;5101;49.038;8.710;2023-09-07T08:13:01;3.08;;;2.70;;
10122;SDS011;5101;49.038;8.710;2023-09-07T08:15:28;2.40;;;2.10;;
10122;SDS011;5101;49.038;8.710;2023-09-07T08:17:53;6.38;;;2.63;;
10122;SDS011;5101;49.038;8.710;2023-09-07T08:20:20;3.80;;;2.60;;
10122;SDS011;5101;49.038;8.710;2023-09-07T08:22:45;5.68;;;2.92;;
10122;SDS011;5101;49.038;8.710;2023-09-07T08:25:11;5.72;;;2.80;;
10122;SDS011;5101;49.038;8.710;2023-09-07T08:27:38;4.10;;;2.72;;
10122;SDS011;5101;49.038;8.710;2023-09-07T08:30:11;2.35;;;2.15;;
10122;SDS011;5101;49.038;8.710;2023-09-07T08:32:37;4.03;;;2.70;;
10122;SDS011;5101;49.038;8.710;2023-09-07T08:35:03;4.53;;;2.70;;
10122;SDS011;5101;49.038;8.710;2023-09-07T08:37:32;3.90;;;2.58;;
10122;SDS011;5101;49.038;8.710;2023-09-07T08:39:58;3.40;;;2.60;;
10122;SDS011;5101;49.038;8.710;2023-09-07T08:42:24;2.70;;;2.50;;
10122;SDS011;5101;49.038;8.710;2023-09-07T08:44:50;2.30;;;2.20;;
10122;SDS011;5101;49.038;8.710;2023-09-07T08:47:18;2.78;;;2.30;;
10122;SDS011;5101;49.038;8.710;2023-09-07T08:49:45;2.75;;;2.55;;
10122;SDS011;5101;49.038;8.710;2023-09-07T08:52:12;2.40;;;2.30;;
10122;SDS011;5101;49.038;8.710;2023-09-07T08:54:40;2.72;;;2.53;;
10122;SDS011;5101;49.038;8.710;2023-09-07T08:57:07;2.85;;;2.65;;
10122;SDS011;5101;49.038;8.710;2023-09-07T08:59:35;2.58;;;2.30;;
10122;SDS011;5101;49.038;8.710;2023-09-07T09:02:01;4.20;;;2.50;;
10122;SDS011;5101;49.038;8.710;2023-09-07T09:04:29;2.63;;;2.47;;
10122;SDS011;5101;49.038;8.710;2023-09-07T09:06:55;8.63;;;2.60;;
10122;SDS011;5101;49.038;8.710;2023-09-07T09:09:21;4.65;;;2.75;;
10122;SDS011;5101;49.038;8.710;2023-09-07T09:11:49;3.30;;;2.55;;
10122;SDS011;5101;49.038;8.710;2023-09-07T09:14:18;3.80;;;2.30;;
10122;SDS011;5101;49.038;8.710;2023-09-07T09:16:50;3.90;;;2.72;;
10122;SDS011;5101;49.038;8.710;2023-09-07T09:19:16;2.67;;;2.47;;
10122;SDS011;5101;49.038;8.710;2023-09-07T09:21:44;2.92;;;2.72;;
10122;SDS011;5101;49.038;8.710;2023-09-07T09:24:11;3.25;;;2.42;;
10122;SDS011;5101;49.038;8.710;2023-09-07T09:26:37;2.85;;;2.65;;
10122;SDS011;5101;49.038;8.710;2023-09-07T09:29:03;2.85;;;2.65;;
10122;SDS011;5101;49.038;8.710;2023-09-07T09:31:29;4.13;;;2.72;;
10122;SDS011;5101;49.038;8.710;2023-09-07T09:33:55;2.35;;;2.25;;
10122;SDS011;5101;49.038;8.710;2023-09-07T09:36:21;4.05;;;2.88;;
10122;SDS011;5101;49.038;8.710;2023-09-07T09:38:50;3.40;;;2.75;;
10122;SDS011;5101;49.038;8.710;2023-09-07T09:41:18;3.15;;;2.88;;
10122;SDS011;5101;49.038;8.710;2023-09-07T09:43:46;6.38;;;2.72;;
10122;SDS011;5101;49.038;8.710;2023-09-07T09:46:14;2.83;;;2.70;;
10122;SDS011;5101;49.038;8.710;2023-09-07T09:48:40;4.03;;;3.00;;
10122;SDS011;5101;49.038;8.710;2023-09-07T09:51:07;3.90;;;3.00;;
10122;SDS011;5101;49.038;8.710;2023-09-07T09:53:33;2.72;;;2.53;;
10122;SDS011;5101;49.038;8.710;2023-09-07T09:55:59;2.80;;;2.53;;
10122;SDS011;5101;49.038;8.710;2023-09-07T09:58:25;7.55;;;5.00;;
10122;SDS011;5101;49.038;8.710;2023-09-07T10:00:56;6.10;;;4.85;;
10122;SDS011;5101;49.038;8.710;2023-09-07T10:03:29;10.52;;;7.43;;
10122;SDS011;5101;49.038;8.710;2023-09-07T10:06:10;3.65;;;3.30;;
10122;SDS011;5101;49.038;8.710;2023-09-07T10:09:03;4.35;;;3.75;;
10122;SDS011;5101;49.038;8.710;2023-09-07T10:11:35;4.78;;;3.80;;
10122;SDS011;5101;49.038;8.710;2023-09-07T10:14:05;4.50;;;3.63;;
10122;SDS011;5101;49.038;8.710;2023-09-07T10:16:40;3.25;;;2.97;;
10122;SDS011;5101;49.038;8.710;2023-09-07T10:21:41;3.70;;;3.38;;
10122;SDS011;5101;49.038;8.710;2023-09-07T10:24:07;3.95;;;3.00;;
10122;SDS011;5101;49.038;8.710;2023-09-07T10:26:33;3.45;;;2.92;;
10122;SDS011;5101;49.038;8.710;2023-09-07T10:28:59;3.42;;;2.90;;
10122;SDS011;5101;49.038;8.710;2023-09-07T10:31:27;3.35;;;2.92;;
10122;SDS011;5101;49.038;8.710;2023-09-07T10:33:52;4.70;;;3.17;;
10122;SDS011;5101;49.038;8.710;2023-09-07T10:36:25;4.00;;;2.95;;
10122;SDS011;5101;49.038;8.710;2023-09-07T10:38:52;2.78;;;2.58;;
10122;SDS011;5101;49.038;8.710;2023-09-07T10:41:18;3.33;;;2.60;;
10122;SDS011;5101;49.038;8.710;2023-09-07T10:46:14;5.15;;;3.10;;
10122;SDS011;5101;49.038;8.710;2023-09-07T10:48:42;2.90;;;2.70;;
10122;SDS011;5101;49.038;8.710;2023-09-07T10:51:08;3.10;;;2.85;;
10122;SDS011;5101;49.038;8.710;2023-09-07T10:53:33;3.72;;;2.65;;
10122;SDS011;5101;49.038;8.710;2023-09-07T10:55:59;6.07;;;3.10;;
10122;SDS011;5101;49.038;8.710;2023-09-07T10:58:32;2.92;;;2.50;;
10122;SDS011;5101;49.038;8.710;2023-09-07T11:01:00;2.97;;;2.78;;
10122;SDS011;5101;49.038;8.710;2023-09-07T11:03:26;4.15;;;2.45;;
10122;SDS011;5101;49.038;8.710;2023-09-07T11:05:59;3.92;;;2.70;;
10122;SDS011;5101;49.038;8.710;2023-09-07T11:08:29;2.47;;;2.38;;
10122;SDS011;5101;49.038;8.710;2023-09-07T11:10:55;3.13;;;2.88;;
10122;SDS011;5101;49.038;8.710;2023-09-07T11:13:22;5.28;;;2.33;;
10122;SDS011;5101;49.038;8.710;2023-09-07T11:15:49;3.03;;;2.38;;
10122;SDS011;5101;49.038;8.710;2023-09-07T11:18:21;2.95;;;2.65;;
10122;SDS011;5101;49.038;8.710;2023-09-07T11:20:48;2.95;;;2.58;;
10122;SDS011;5101;49.038;8.710;2023-09-07T11:23:16;3.15;;;2.95;;
10122;SDS011;5101;49.038;8.710;2023-09-07T11:25:43;2.50;;;2.38;;
10122;SDS011;5101;49.038;8.710;2023-09-07T11:28:08;2.80;;;2.60;;
10122;SDS011;5101;49.038;8.710;2023-09-07T11:30:36;2.20;;;2.10;;
10122;SDS011;5101;49.038;8.710;2023-09-07T11:35:29;2.78;;;2.53;;
10122;SDS011;5101;49.038;8.710;2023-09-07T11:37:55;2.63;;;2.40;;
10122;SDS011;5101;49.038;8.710;2023-09-07T11:40:20;2.72;;;2.53;;
10122;SDS011;5101;49.038;8.710;2023-09-07T11:42:46;2.58;;;2.38;;
10122;SDS011;5101;49.038;8.710;2023-09-07T11:45:11;3.33;;;2.20;;
10122;SDS011;5101;49.038;8.710;2023-09-07T11:47:38;2.72;;;2.50;;
10122;SDS011;5101;49.038;8.710;2023-09-07T11:50:04;2.78;;;2.58;;
10122;SDS011;5101;49.038;8.710;2023-09-07T11:52:31;3.88;;;2.70;;
10122;SDS011;5101;49.038;8.710;2023-09-07T11:54:57;2.97;;;2.53;;
10122;SDS011;5101;49.038;8.710;2023-09-07T11:57:22;2.30;;;2.10;;
10122;SDS011;5101;49.038;8.710;2023-09-07T11:59:48;4.60;;;2.00;;
10122;SDS011;5101;49.038;8.710;2023-09-07T12:02:13;3.00;;;2.70;;
10122;SDS011;5101;49.038;8.710;2023-09-07T12:04:40;2.40;;;2.20;;
10122;SDS011;5101;49.038;8.710;2023-09-07T12:07:05;3.70;;;2.50;;
10122;SDS011;5101;49.038;8.710;2023-09-07T12:09:31;3.00;;;2.70;;
10122;SDS011;5101;49.038;8.710;2023-09-07T12:11:57;2.20;;;2.10;;
10122;SDS011;5101;49.038;8.710;2023-09-07T12:14:23;3.05;;;2.30;;
10122;SDS011;5101;49.038;8.710;2023-09-07T12:16:48;3.00;;;2.17;;
10122;SDS011;5101;49.038;8.710;2023-09-07T12:19:14;2.80;;;2.53;;
10122;SDS011;5101;49.038;8.710;2023-09-07T12:21:39;2.97;;;2.53;;
10122;SDS011;5101;49.038;8.710;2023-09-07T12:24:07;3.42;;;2.50;;
10122;SDS011;5101;49.038;8.710;2023-09-07T12:26:33;3.13;;;2.42;;
10122;SDS011;5101;49.038;8.710;2023-09-07T12:28:58;3.03;;;2.50;;
10122;SDS011;5101;49.038;8.710;2023-09-07T12:31:24;6.72;;;2.67;;
10122;SDS011;5101;49.038;8.710;2023-09-07T12:33:50;2.85;;;2.60;;
10122;SDS011;5101;49.038;8.710;2023-09-07T12:36:16;3.60;;;2.42;;
10122;SDS011;5101;49.038;8.710;2023-09-07T12:38:42;5.28;;;2.45;;
10122;SDS011;5101;49.038;8.710;2023-09-07T12:41:07;3.55;;;2.90;;
10122;SDS011;5101;49.038;8.710;2023-09-07T12:43:33;2.85;;;2.53;;
10122;SDS011;5101;49.038;8.710;2023-09-07T12:45:59;4.05;;;2.72;;
10122;SDS011;5101;49.038;8.710;2023-09-07T12:48:24;2.65;;;2.45;;
10122;SDS011;5101;49.038;8.710;2023-09-07T12:50:50;2.83;;;2.30;;
10122;SDS011;5101;49.038;8.710;2023-09-07T12:53:16;3.85;;;2.78;;
10122;SDS011;5101;49.038;8.710;2023-09-07T12:55:41;2.55;;;2.45;;
10122;SDS011;5101;49.038;8.710;2023-09-07T12:58:08;2.90;;;2.70;;
10122;SDS011;5101;49.038;8.710;2023-09-07T13:00:33;2.67;;;2.55;;
10122;SDS011;5101;49.038;8.710;2023-09-07T13:02:59;2.38;;;2.17;;
10122;SDS011;5101;49.038;8.710;2023-09-07T13:05:25;2.67;;;2.47;;
10122;SDS011;5101;49.038;8.710;2023-09-07T13:07:50;4.22;;;2.20;;
10122;SDS011;5101;49.038;8.710;2023-09-07T13:10:17;3.15;;;2.65;;
10122;SDS011;5101;49.038;8.710;2023-09-07T13:12:43;2.33;;;2.15;;
10122;SDS011;5101;49.038;8.710;2023-09-07T13:15:09;2.50;;;2.30;;
10122;SDS011;5101;49.038;8.710;2023-09-07T13:17:34;4.35;;;2.67;;
10122;SDS011;5101;49.038;8.710;2023-09-07T13:20:00;3.10;;;2.50;;
10122;SDS011;5101;49.038;8.710;2023-09-07T13:22:25;2.67;;;2.50;;
10122;SDS011;5101;49.038;8.710;2023-09-07T13:24:51;3.05;;;2.35;;
10122;SDS011;5101;49.038;8.710;2023-09-07T13:27:17;2.40;;;2.17;;
10122;SDS011;5101;49.038;8.710;2023-09-07T13:29:42;2.00;;;1.85;;
10122;SDS011;5101;49.038;8.710;2023-09-07T13:32:08;4.13;;;2.17;;
10122;SDS011;5101;49.038;8.710;2023-09-07T13:34:33;2.22;;;2.13;;
10122;SDS011;5101;49.038;8.710;2023-09-07T13:36:59;3.50;;;2.20;;
10122;SDS011;5101;49.038;8.710;2023-09-07T13:39:24;2.70;;;2.50;;
10122;SDS011;5101;49.038;8.710;2023-09-07T13:41:50;2.70;;;2.50;;
10122;SDS011;5101;49.038;8.710;2023-09-07T13:44:15;2.45;;;1.92;;
10122;SDS011;5101;49.038;8.710;2023-09-07T13:46:41;2.80;;;2.17;;
10122;SDS011;5101;49.038;8.710;2023-09-07T13:49:08;2.38;;;2.25;;
10122;SDS011;5101;49.038;8.710;2023-09-07T13:51:34;2.10;;;2.00;;
10122;SDS011;5101;49.038;8.710;2023-09-07T13:54:03;5.00;;;2.20;;
10122;SDS011;5101;49.038;8.710;2023-09-07T13:56:29;3.13;;;2.35;;
10122;SDS011;5101;49.038;8.710;2023-09-07T13:58:56;2.25;;;2.05;;
10122;SDS011;5101;49.038;8.710;2023-09-07T14:01:21;2.50;;;2.35;;
10122;SDS011;5101;49.038;8.710;2023-09-07T14:03:48;4.10;;;2.22;;
10122;SDS011;5101;49.038;8.710;2023-09-07T14:06:14;3.05;;;2.17;;
10122;SDS011;5101;49.038;8.710;2023-09-07T14:08:39;2.08;;;1.92;;
10122;SDS011;5101;49.038;8.710;2023-09-07T14:11:05;2.60;;;2.25;;
10122;SDS011;5101;49.038;8.710;2023-09-07T14:13:31;3.70;;;2.05;;
10122;SDS011;5101;49.038;8.710;2023-09-07T14:15:59;4.82;;;2.20;;
10122;SDS011;5101;49.038;8.710;2023-09-07T14:18:25;2.15;;;2.05;;
10122;SDS011;5101;49.038;8.710;2023-09-07T14:20:50;4.75;;;2.50;;
10122;SDS011;5101;49.038;8.710;2023-09-07T14:23:16;2.88;;;2.30;;
10122;SDS011;5101;49.038;8.710;2023-09-07T14:25:41;3.63;;;2.30;;
10122;SDS011;5101;49.038;8.710;2023-09-07T14:28:09;2.38;;;2.17;;
10122;SDS011;5101;49.038;8.710;2023-09-07T14:30:35;2.33;;;2.13;;
10122;SDS011;5101;49.038;8.710;2023-09-07T14:33:01;2.67;;;2.47;;
10122;SDS011;5101;49.038;8.710;2023-09-07T14:35:26;2.50;;;2.30;;
10122;SDS011;5101;49.038;8.710;2023-09-07T14:37:52;2.60;;;2.40;;
10122;SDS011;5101;49.038;8.710;2023-09-07T14:40:17;2.30;;;2.10;;
10122;SDS011;5101;49.038;8.710;2023-09-07T14:42:43;2.28;;;2.17;;
10122;SDS011;5101;49.038;8.710;2023-09-07T14:45:09;4.03;;;2.38;;
10122;SDS011;5101;49.038;8.710;2023-09-07T14:47:35;3.25;;;2.33;;
10122;SDS011;5101;49.038;8.710;2023-09-07T14:50:00;4.55;;;2.20;;
10122;SDS011;5101;49.038;8.710;2023-09-07T14:52:27;2.20;;;2.05;;
10122;SDS011;5101;49.038;8.710;2023-09-07T14:54:52;2.60;;;2.40;;
10122;SDS011;5101;49.038;8.710;2023-09-07T14:57:18;2.28;;;2.08;;
10122;SDS011;5101;49.038;8.710;2023-09-07T14:59:43;2.92;;;2.20;;
10122;SDS011;5101;49.038;8.710;2023-09-07T15:02:09;2.13;;;1.95;;